Time;durP1;ratioP1;P1;durP2;ratioP2;P2;SDS_P1;SDS_P2;PMS_P1;PMS_P2;Temp;Humidity;BMP_temperature;BMP_pressure;BME280_temperature;BME280_humidity;BME280_pressure;Samples;Min_cycle;Max_cycle;Signal;HPM_P1;HPM_P2
2021/06/19 00:00:16;;;;;;;;;;;;;;;25.10;52.14;100329.06;5058697;28;760;-38
2021/06/19 00:02:41;;;;;;;;;;;;;;;24.96;52.82;100322.59;5058621;28;947;-38
2021/06/19 00:05:07;;;;;;;;;;;;;;;24.89;52.96;100327.81;5058702;28;763;-38
2021/06/19 00:07:32;;;;;;;;;;;;;;;24.98;52.90;100317.88;5058706;28;1902;-39
2021/06/19 00:09:57;;;;;;;;;;;;;;;24.99;52.83;100316.03;5058127;28;812;-39
2021/06/19 00:12:23;;;;;;;;;;;;;;;25.02;52.94;100310.28;5057821;28;1163;-39
2021/06/19 00:14:48;;;;;;;;;;;;;;;25.13;52.60;100306.31;5058255;28;729;-39
2021/06/19 00:17:13;;;;;;;;;;;;;;;24.97;52.98;100304.59;5058163;28;994;-39
2021/06/19 00:19:39;;;;;;;;;;;;;;;24.88;53.27;100301.94;5058329;28;1227;-39
2021/06/19 00:22:04;;;;;;;;;;;;;;;24.92;53.51;100297.88;5057348;28;883;-37
2021/06/19 00:24:31;;;;;;;;;;;;;;;25.17;52.71;100299.56;5058567;28;779;-38
2021/06/19 00:26:56;;;;;;;;;;;;;;;25.29;52.18;100295.41;5058304;28;1910;-38
2021/06/19 00:29:21;;;;;;;;;;;;;;;25.35;51.85;100299.25;5057766;28;763;-38
2021/06/19 00:31:47;;;;;;;;;;;;;;;25.33;51.75;100295.06;5057544;28;951;-38
2021/06/19 00:34:12;;;;;;;;;;;;;;;25.40;51.51;100294.16;5058170;28;799;-38
2021/06/19 00:36:38;;;;;;;;;;;;;;;25.40;51.78;100293.31;5057708;28;771;-38
2021/06/19 00:39:03;;;;;;;;;;;;;;;25.37;51.70;100301.75;5058122;28;747;-37
2021/06/19 00:41:29;;;;;;;;;;;;;;;25.39;51.76;100291.66;5057590;28;870;-37
2021/06/19 00:43:55;;;;;;;;;;;;;;;25.35;51.67;100296.56;5057397;28;798;-37
2021/06/19 00:46:20;;;;;;;;;;;;;;;25.44;51.53;100298.16;5057789;28;1108;-37
2021/06/19 00:48:45;;;;;;;;;;;;;;;25.39;51.65;100283.56;5057814;28;1902;-37
2021/06/19 00:51:10;;;;;;;;;;;;;;;25.36;51.67;100287.44;5057268;28;768;-38
2021/06/19 00:53:36;;;;;;;;;;;;;;;25.42;51.38;100289.41;5057682;28;768;-38
2021/06/19 00:56:01;;;;;;;;;;;;;;;25.46;51.33;100284.50;5056022;28;1383;-37
2021/06/19 00:58:27;;;;;;;;;;;;;;;25.52;51.37;100278.41;5057342;28;758;-38
2021/06/19 01:00:52;;;;;;;;;;;;;;;25.49;51.29;100283.31;5057619;28;744;-38
2021/06/19 01:03:17;;;;;;;;;;;;;;;25.52;51.20;100281.09;5057370;28;939;-38
2021/06/19 01:05:44;;;;;;;;;;;;;;;25.50;51.56;100271.50;5057483;28;791;-38
2021/06/19 01:08:09;;;;;;;;;;;;;;;25.55;51.16;100278.03;5057542;28;1963;-38
2021/06/19 01:10:34;;;;;;;;;;;;;;;25.48;51.52;100284.31;5057205;28;842;-38
2021/06/19 01:13:00;;;;;;;;;;;;;;;25.40;51.53;100277.16;5057214;28;1099;-37
2021/06/19 01:15:25;;;;;;;;;;;;;;;25.54;51.38;100273.66;5057473;28;863;-37
2021/06/19 01:17:51;;;;;;;;;;;;;;;25.53;51.32;100276.53;5055154;28;1004;-37
2021/06/19 01:20:17;;;;;;;;;;;;;;;25.45;51.37;100269.38;5056875;28;1312;-38
2021/06/19 01:22:43;;;;;;;;;;;;;;;25.46;51.46;100276.41;5057060;28;752;-38
2021/06/19 01:25:10;;;;;;;;;;;;;;;25.47;51.69;100275.41;5056185;28;886;-38
2021/06/19 01:27:35;;;;;;;;;;;;;;;25.47;51.38;100283.50;5056734;28;1966;-38
2021/06/19 01:30:01;;;;;;;;;;;;;;;25.43;51.82;100271.41;5057397;28;840;-37
2021/06/19 01:32:31;;;;;;;;;;;;;;;25.41;51.82;100265.34;5056676;28;1006;-37
2021/06/19 01:34:56;;;;;;;;;;;;;;;25.49;51.64;100267.97;5056734;28;882;-37
2021/06/19 01:37:22;;;;;;;;;;;;;;;25.44;51.52;100271.22;5056943;28;717;-37
2021/06/19 01:39:47;;;;;;;;;;;;;;;25.39;51.83;100265.53;5056866;28;752;-37
2021/06/19 01:42:12;;;;;;;;;;;;;;;25.46;51.74;100276.41;5056393;28;847;-37
2021/06/19 01:44:37;;;;;;;;;;;;;;;25.44;51.81;100276.59;5057062;28;776;-37
2021/06/19 01:47:03;;;;;;;;;;;;;;;25.47;51.57;100278.13;5056617;28;1984;-37
2021/06/19 01:49:32;;;;;;;;;;;;;;;25.46;51.66;100275.59;5056449;28;914;-38
2021/06/19 01:51:57;;;;;;;;;;;;;;;25.49;51.70;100275.25;5056481;28;744;-37
2021/06/19 01:54:22;;;;;;;;;;;;;;;25.47;51.72;100279.97;5056449;28;843;-37
2021/06/19 01:56:48;;;;;;;;;;;;;;;25.39;51.87;100273.63;5056534;28;787;-37
2021/06/19 01:59:13;;;;;;;;;;;;;;;25.41;52.12;100281.50;5056861;28;768;-37
2021/06/19 02:01:38;;;;;;;;;;;;;;;25.39;52.19;100273.63;5056331;28;919;-38
2021/06/19 02:04:04;;;;;;;;;;;;;;;25.35;52.10;100269.63;5056230;28;755;-37
2021/06/19 02:06:29;;;;;;;;;;;;;;;25.34;51.86;100267.94;5056578;28;831;-37
2021/06/19 02:09:07;;;;;;;;;;;;;;;25.38;52.14;100274.66;5056646;28;1902;-37
2021/06/19 02:11:32;;;;;;;;;;;;;;;25.39;51.91;100279.00;5055952;28;1076;-37
2021/06/19 02:13:58;;;;;;;;;;;;;;;25.39;51.91;100278.19;5056411;28;752;-37
2021/06/19 02:16:23;;;;;;;;;;;;;;;25.41;51.71;100276.13;5056326;28;962;-37
2021/06/19 02:18:48;;;;;;;;;;;;;;;25.52;51.34;100282.94;5055770;28;1267;-37
2021/06/19 02:21:13;;;;;;;;;;;;;;;25.42;51.76;100269.75;5056636;28;886;-37
2021/06/19 02:23:39;;;;;;;;;;;;;;;25.45;51.54;100274.75;5056180;28;748;-37
2021/06/19 02:26:04;;;;;;;;;;;;;;;25.43;51.69;100272.25;5055991;28;812;-37
2021/06/19 02:28:29;;;;;;;;;;;;;;;25.37;51.47;100274.84;5056149;28;1976;-37
2021/06/19 02:30:55;;;;;;;;;;;;;;;25.39;51.49;100284.41;5056533;28;867;-37
2021/06/19 02:33:21;;;;;;;;;;;;;;;25.44;51.44;100273.91;5055655;28;975;-37
2021/06/19 02:35:46;;;;;;;;;;;;;;;25.36;51.67;100265.91;5056477;28;804;-38
2021/06/19 02:38:12;;;;;;;;;;;;;;;25.44;51.26;100275.78;5060344;28;748;-38
2021/06/19 02:40:41;;;;;;;;;;;;;;;25.37;51.35;100274.84;5060232;28;767;-38
2021/06/19 02:43:06;;;;;;;;;;;;;;;25.49;50.77;100277.94;5059757;28;854;-38
2021/06/19 02:45:32;;;;;;;;;;;;;;;25.45;51.06;100274.75;5059867;28;1070;-38
2021/06/19 02:47:57;;;;;;;;;;;;;;;25.52;50.70;100283.78;5059270;28;1906;-38
2021/06/19 02:50:24;;;;;;;;;;;;;;;25.47;50.61;100280.81;5060378;28;819;-38
2021/06/19 02:52:49;;;;;;;;;;;;;;;25.47;50.47;100277.28;5059790;28;805;-38
2021/06/19 02:55:15;;;;;;;;;;;;;;;25.46;50.61;100281.81;5059957;28;828;-38
2021/06/19 02:57:41;;;;;;;;;;;;;;;25.49;50.57;100281.44;5060344;28;810;-38
2021/06/19 03:00:07;;;;;;;;;;;;;;;25.42;50.76;100286.72;5059837;28;776;-38
2021/06/19 03:02:32;;;;;;;;;;;;;;;25.42;50.71;100280.50;5059213;28;940;-38
2021/06/19 03:04:58;;;;;;;;;;;;;;;25.40;50.96;100286.09;5059736;28;736;-38
2021/06/19 03:07:23;;;;;;;;;;;;;;;25.49;50.76;100289.50;5059558;28;1963;-37
2021/06/19 03:09:48;;;;;;;;;;;;;;;25.46;50.65;100287.19;5059728;28;788;-38
2021/06/19 03:12:13;;;;;;;;;;;;;;;25.42;51.16;100286.72;5059311;28;1147;-39
2021/06/19 03:14:39;;;;;;;;;;;;;;;25.42;50.95;100281.34;5059405;28;810;-40
2021/06/19 03:17:04;;;;;;;;;;;;;;;25.52;51.01;100282.94;5059196;28;1018;-37
2021/06/19 03:19:30;;;;;;;;;;;;;;;25.51;50.83;100282.09;5058778;28;1073;-38
2021/06/19 03:21:59;;;;;;;;;;;;;;;24.87;50.81;100181.91;5059338;28;799;-38
2021/06/19 03:24:24;;;;;;;;;;;;;;;25.42;50.96;100281.34;5059668;28;747;-38
2021/06/19 03:26:49;;;;;;;;;;;;;;;25.29;51.63;100289.22;5058834;28;851;-40
2021/06/19 03:29:14;;;;;;;;;;;;;;;25.25;51.92;100288.75;5059342;28;1918;-40
2021/06/19 03:31:40;;;;;;;;;;;;;;;25.05;52.33;100286.56;5059371;28;967;-39
2021/06/19 03:34:05;;;;;;;;;;;;;;;25.03;52.67;100287.72;5058359;28;859;-39
2021/06/19 03:36:30;;;;;;;;;;;;;;;24.95;52.84;100275.19;5059214;28;784;-39
2021/06/19 03:38:56;;;;;;;;;;;;;;;24.93;52.84;100280.75;5059309;28;824;-39
2021/06/19 03:41:21;;;;;;;;;;;;;;;24.99;52.74;100289.94;5058893;28;763;-39
2021/06/19 03:43:46;;;;;;;;;;;;;;;24.95;52.98;100283.25;5058768;28;828;-40
2021/06/19 03:46:11;;;;;;;;;;;;;;;24.69;53.69;100289.81;5058924;28;1006;-39
2021/06/19 03:48:37;;;;;;;;;;;;;;;24.79;53.62;100286.88;5057422;28;2037;-40
2021/06/19 03:51:02;;;;;;;;;;;;;;;24.80;53.40;100286.69;5059088;28;752;-42
2021/06/19 03:53:27;;;;;;;;;;;;;;;23.80;56.13;100281.75;5058708;28;772;-39
2021/06/19 03:55:53;;;;;;;;;;;;;;;23.85;56.45;100284.78;5058310;28;747;-46
2021/06/19 03:58:18;;;;;;;;;;;;;;;23.74;56.57;100279.75;5058972;28;846;-45
2021/06/19 04:00:43;;;;;;;;;;;;;;;23.38;57.32;100277.41;5058607;28;838;-37
2021/06/19 04:03:08;;;;;;;;;;;;;;;23.33;57.73;100283.31;5057808;28;967;-45
2021/06/19 04:05:34;;;;;;;;;;;;;;;22.53;60.92;100285.53;5058522;28;752;-37
2021/06/19 04:07:59;;;;;;;;;;;;;;;21.90;63.16;100287.44;5058635;28;1964;-40
2021/06/19 04:10:25;;;;;;;;;;;;;;;22.04;62.99;100287.84;5058261;28;756;-38
2021/06/19 04:12:51;;;;;;;;;;;;;;;22.21;62.66;100283.41;5058520;28;1239;-40
2021/06/19 04:15:16;;;;;;;;;;;;;;;22.06;63.12;100290.38;5058660;28;724;-40
2021/06/19 04:17:42;;;;;;;;;;;;;;;21.97;63.54;100290.34;5057695;28;1018;-43
2021/06/19 04:20:08;;;;;;;;;;;;;;;22.13;63.05;100284.25;5058117;28;1203;-39
2021/06/19 04:22:33;;;;;;;;;;;;;;;22.09;63.27;100295.41;5058367;28;732;-39
2021/06/19 04:24:59;;;;;;;;;;;;;;;22.04;63.64;100295.91;5057870;28;974;-37
2021/06/19 04:27:24;;;;;;;;;;;;;;;23.11;60.36;100296.38;5058468;28;1973;-40
2021/06/19 04:29:49;;;;;;;;;;;;;;;23.73;58.28;100289.66;5058327;28;756;-38
2021/06/19 04:32:15;;;;;;;;;;;;;;;24.15;57.06;100291.38;5057386;28;975;-38
2021/06/19 04:34:40;;;;;;;;;;;;;;;24.43;56.27;100297.16;5056994;28;745;-38
2021/06/19 04:37:12;;;;;;;;;;;;;;;24.69;55.46;100303.25;5058100;28;803;-36
2021/06/19 04:39:42;;;;;;;;;;;;;;;24.86;54.78;100295.91;5057677;28;772;-37
2021/06/19 04:42:10;;;;;;;;;;;;;;;24.96;54.49;100297.56;5058133;28;775;-37
2021/06/19 04:47:18;;;;;;;;;;;;;;;24.39;55.81;100297.69;5057025;28;1981;-38
2021/06/19 04:49:44;;;;;;;;;;;;;;;24.28;56.24;100297.06;5057868;28;878;-38
2021/06/19 04:52:09;;;;;;;;;;;;;;;24.27;56.29;100300.78;5058098;28;752;-38
2021/06/19 04:54:37;;;;;;;;;;;;;;;24.15;56.69;100302.97;5057424;28;867;-38
2021/06/19 04:57:06;;;;;;;;;;;;;;;24.31;56.18;100310.16;5057695;28;812;-38
2021/06/19 04:59:31;;;;;;;;;;;;;;;24.26;56.44;100304.47;5058331;28;842;-37
2021/06/19 05:01:57;;;;;;;;;;;;;;;24.28;56.37;100299.75;5057003;28;967;-38
2021/06/19 05:04:22;;;;;;;;;;;;;;;24.38;56.33;100306.75;5057118;28;859;-36
2021/06/19 05:06:47;;;;;;;;;;;;;;;24.91;55.17;100303.44;5057609;28;959;-42
2021/06/19 05:09:12;;;;;;;;;;;;;;;25.14;54.28;100302.63;5055956;28;1902;-43
2021/06/19 05:11:38;;;;;;;;;;;;;;;25.20;54.05;100307.28;5057589;28;1107;-41
2021/06/19 05:14:03;;;;;;;;;;;;;;;25.34;53.77;100311.03;5057446;28;831;-42
2021/06/19 05:16:28;;;;;;;;;;;;;;;25.42;53.37;100313.63;5056428;28;1006;-40
2021/06/19 05:18:53;;;;;;;;;;;;;;;25.46;53.47;100319.50;5057156;28;1332;-39
2021/06/19 05:21:19;;;;;;;;;;;;;;;25.51;53.49;100321.66;5057358;28;756;-38
2021/06/19 05:23:44;;;;;;;;;;;;;;;25.61;53.31;100319.53;5056805;28;826;-44
2021/06/19 05:26:09;;;;;;;;;;;;;;;25.66;53.07;100321.69;5057054;28;784;-37
2021/06/19 05:28:35;;;;;;;;;;;;;;;25.66;53.22;100327.09;5057754;28;1914;-45
2021/06/19 05:31:02;;;;;;;;;;;;;;;25.75;53.05;100323.31;5056450;28;847;-44
2021/06/19 05:33:27;;;;;;;;;;;;;;;25.73;53.13;100322.66;5056128;28;983;-43
2021/06/19 05:35:52;;;;;;;;;;;;;;;25.81;52.83;100329.81;5056915;28;763;-44
2021/06/19 05:38:19;;;;;;;;;;;;;;;25.84;52.68;100329.44;5056911;28;779;-36
2021/06/19 05:40:44;;;;;;;;;;;;;;;25.86;52.77;100329.28;5057071;28;752;-37
2021/06/19 05:43:09;;;;;;;;;;;;;;;25.88;52.92;100335.28;5056782;28;760;-41
2021/06/19 05:45:34;;;;;;;;;;;;;;;25.95;52.81;100328.16;5056356;28;793;-36
2021/06/19 05:48:00;;;;;;;;;;;;;;;26.02;52.67;100329.09;5056046;28;1969;-42
2021/06/19 05:50:25;;;;;;;;;;;;;;;26.04;52.72;100334.31;5056932;28;803;-45
2021/06/19 05:52:50;;;;;;;;;;;;;;;26.03;52.42;100336.16;5056376;28;858;-35
2021/06/19 05:55:16;;;;;;;;;;;;;;;26.11;52.65;100331.69;5056687;28;845;-36
2021/06/19 05:57:41;;;;;;;;;;;;;;;26.12;52.43;100338.75;5056770;28;798;-43
2021/06/19 06:00:07;;;;;;;;;;;;;;;26.19;51.78;100341.53;5056205;28;823;-40
2021/06/19 06:02:32;;;;;;;;;;;;;;;26.17;52.10;100334.47;5055864;28;951;-43
2021/06/19 06:04:57;;;;;;;;;;;;;;;26.29;51.88;100334.00;5056675;28;818;-42
2021/06/19 06:07:22;;;;;;;;;;;;;;;26.21;52.03;100334.09;5056203;28;1911;-36
2021/06/19 06:09:48;;;;;;;;;;;;;;;26.20;51.91;100333.25;5056372;28;754;-38
2021/06/19 06:12:13;;;;;;;;;;;;;;;26.25;51.68;100336.25;5056090;28;1104;-37
2021/06/19 06:14:41;;;;;;;;;;;;;;;26.35;51.80;100346.75;5056540;28;886;-40
2021/06/19 06:17:06;;;;;;;;;;;;;;;26.32;51.96;100349.81;5055559;28;1006;-42
2021/06/19 06:19:32;;;;;;;;;;;;;;;26.33;51.86;100343.41;5056081;28;1096;-36
2021/06/19 06:21:57;;;;;;;;;;;;;;;26.39;51.87;100341.84;5056470;28;775;-42
2021/06/19 06:24:22;;;;;;;;;;;;;;;26.39;51.79;100341.84;5056159;28;787;-43
2021/06/19 06:26:51;;;;;;;;;;;;;;;26.43;51.74;100343.13;5056255;28;744;-45
2021/06/19 06:29:19;;;;;;;;;;;;;;;26.46;51.69;100341.94;5056224;28;1910;-42
2021/06/19 06:31:45;;;;;;;;;;;;;;;26.40;51.42;100343.50;5055671;28;1030;-44
2021/06/19 06:34:10;;;;;;;;;;;;;;;26.40;51.48;100344.34;5056570;28;760;-35
2021/06/19 06:36:35;;;;;;;;;;;;;;;26.47;51.18;100340.88;5056201;28;828;-37
2021/06/19 06:39:04;;;;;;;;;;;;;;;26.55;51.52;100348.88;5056174;28;744;-45
2021/06/19 06:41:30;;;;;;;;;;;;;;;26.53;51.52;100340.97;5056146;28;811;-41
2021/06/19 06:43:55;;;;;;;;;;;;;;;26.51;51.60;100342.16;5056017;28;879;-36
2021/06/19 06:46:20;;;;;;;;;;;;;;;26.62;51.61;100347.09;5055388;28;951;-44
2021/06/19 06:48:45;;;;;;;;;;;;;;;26.67;50.87;100345.69;5056029;28;1992;-44
2021/06/19 06:51:11;;;;;;;;;;;;;;;26.68;50.69;100336.56;5055986;28;858;-37
2021/06/19 06:53:36;;;;;;;;;;;;;;;26.73;50.18;100339.50;5055542;28;812;-36
2021/06/19 06:56:01;;;;;;;;;;;;;;;26.73;50.23;100345.75;5056109;28;751;-37
2021/06/19 06:58:27;;;;;;;;;;;;;;;26.81;50.25;100343.97;5056019;28;804;-43
2021/06/19 07:00:52;;;;;;;;;;;;;;;26.81;50.74;100339.41;5055850;28;792;-45
2021/06/19 07:03:17;;;;;;;;;;;;;;;26.75;50.67;100351.81;5055480;28;951;-44
2021/06/19 07:05:42;;;;;;;;;;;;;;;26.84;50.26;100351.69;5056115;28;866;-43
2021/06/19 07:08:08;;;;;;;;;;;;;;;26.88;50.15;100343.00;5055357;28;1909;-44
2021/06/19 07:10:33;;;;;;;;;;;;;;;26.60;50.99;100332.97;5056156;28;779;-42
2021/06/19 07:12:58;;;;;;;;;;;;;;;26.36;51.30;100329.56;5055942;28;1144;-45
2021/06/19 07:15:24;;;;;;;;;;;;;;;25.63;53.43;100339.09;5055729;28;803;-40
2021/06/19 07:17:49;;;;;;;;;;;;;;;25.06;54.28;100339.34;5053879;28;1227;-46
2021/06/19 07:20:15;;;;;;;;;;;;;;;24.85;54.34;100329.19;5055755;28;1145;-46
2021/06/19 07:22:41;;;;;;;;;;;;;;;24.88;54.53;100328.84;5055581;28;906;-48
2021/06/19 07:25:07;;;;;;;;;;;;;;;24.77;54.68;100323.88;5059241;28;898;-41
2021/06/19 07:27:32;;;;;;;;;;;;;;;24.85;55.35;100328.34;5059376;28;1975;-47
2021/06/19 07:29:57;;;;;;;;;;;;;;;25.27;53.61;100328.94;5059597;28;748;-37
2021/06/19 07:32:23;;;;;;;;;;;;;;;25.59;52.08;100328.84;5058614;28;1015;-39
2021/06/19 07:34:48;;;;;;;;;;;;;;;25.87;51.29;100325.56;5059756;28;780;-45
2021/06/19 07:37:13;;;;;;;;;;;;;;;26.00;50.72;100332.97;5058415;28;831;-42
2021/06/19 07:39:38;;;;;;;;;;;;;;;25.78;47.46;100324.78;5059429;28;759;-39
2021/06/19 07:42:04;;;;;;;;;;;;;;;25.85;48.20;100330.28;5059252;28;751;-40
2021/06/19 07:44:31;;;;;;;;;;;;;;;25.98;48.99;100327.78;5057326;28;1418;-39
2021/06/19 07:46:56;;;;;;;;;;;;;;;26.08;48.52;100324.81;5058623;28;967;-38
2021/06/19 07:49:21;;;;;;;;;;;;;;;26.02;49.04;100329.09;5058812;28;1962;-40
2021/06/19 07:51:47;;;;;;;;;;;;;;;26.36;48.06;100336.81;5058906;28;724;-43
2021/06/19 07:54:12;;;;;;;;;;;;;;;26.49;48.30;100341.53;5058212;28;1179;-43
2021/06/19 07:56:37;;;;;;;;;;;;;;;26.59;48.53;100335.84;5059163;28;747;-37
2021/06/19 07:59:02;;;;;;;;;;;;;;;26.64;48.60;100344.22;5058356;28;727;-41
2021/06/19 08:01:28;;;;;;;;;;;;;;;26.69;48.96;100349.03;5058344;28;935;-36
2021/06/19 08:03:53;;;;;;;;;;;;;;;26.71;48.31;100349.69;5058723;28;819;-36
2021/06/19 08:06:18;;;;;;;;;;;;;;;26.62;49.22;100354.34;5058481;28;799;-39
2021/06/19 08:08:44;;;;;;;;;;;;;;;26.59;49.36;100357.44;5058403;28;1898;-41
2021/06/19 08:11:09;;;;;;;;;;;;;;;26.62;49.32;100354.34;5058510;28;780;-43
2021/06/19 08:13:34;;;;;;;;;;;;;;;26.61;48.94;100352.69;5058175;28;1183;-42
2021/06/19 08:16:01;;;;;;;;;;;;;;;26.55;48.88;100361.50;5058670;28;780;-43
2021/06/19 08:18:26;;;;;;;;;;;;;;;26.53;48.83;100365.25;5057682;28;1148;-38
2021/06/19 08:20:52;;;;;;;;;;;;;;;26.44;49.40;100365.53;5058145;28;817;-36
2021/06/19 08:23:17;;;;;;;;;;;;;;;26.52;48.84;100362.75;5058259;28;1463;-36
2021/06/19 08:25:42;;;;;;;;;;;;;;;26.46;49.12;100366.19;5058067;28;847;-40
2021/06/19 08:28:08;;;;;;;;;;;;;;;26.45;49.41;100368.03;5057797;28;1906;-38
2021/06/19 08:30:33;;;;;;;;;;;;;;;26.50;48.83;100367.47;5057964;28;791;-36
2021/06/19 08:32:58;;;;;;;;;;;;;;;26.46;49.31;100368.91;5057704;28;959;-40
2021/06/19 08:35:24;;;;;;;;;;;;;;;26.43;49.22;100364.69;5057823;28;1026;-36
2021/06/19 08:37:49;;;;;;;;;;;;;;;26.53;49.45;100364.41;5057949;28;775;-41
2021/06/19 08:40:14;;;;;;;;;;;;;;;26.54;49.53;100363.41;5057718;28;835;-41
2021/06/19 08:42:39;;;;;;;;;;;;;;;26.61;49.87;100358.09;5057992;28;767;-37
2021/06/19 08:45:05;;;;;;;;;;;;;;;26.64;49.44;100361.22;5057460;28;784;-38
2021/06/19 08:47:36;;;;;;;;;;;;;;;26.64;49.58;100360.41;5057350;28;1894;-39
2021/06/19 08:50:11;;;;;;;;;;;;;;;26.71;49.59;100365.88;5057463;28;826;-38
2021/06/19 08:52:37;;;;;;;;;;;;;;;26.80;49.72;100366.56;5057598;28;743;-38
2021/06/19 08:55:03;;;;;;;;;;;;;;;26.81;49.32;100366.38;5057806;28;837;-40
2021/06/19 08:57:28;;;;;;;;;;;;;;;26.78;49.18;100367.63;5057594;28;787;-36
2021/06/19 08:59:53;;;;;;;;;;;;;;;26.72;49.43;100371.06;5057261;28;822;-42
2021/06/19 09:02:19;;;;;;;;;;;;;;;26.78;49.70;100374.88;5057078;28;955;-41
2021/06/19 09:04:57;;;;;;;;;;;;;;;26.83;49.81;100371.59;5057398;28;743;-42
2021/06/19 09:07:35;;;;;;;;;;;;;;;26.64;49.73;100366.59;5057022;28;1904;-46
2021/06/19 09:10:19;;;;;;;;;;;;;;;26.26;51.00;100367.56;5057333;28;718;-46
2021/06/19 09:12:53;;;;;;;;;;;;;;;26.29;51.31;100366.38;5056685;28;1104;-42
2021/06/19 09:15:22;;;;;;;;;;;;;;;26.31;51.02;100361.59;5057580;28;802;-41
2021/06/19 09:18:06;;;;;;;;;;;;;;;26.25;50.99;100367.75;5056545;28;1069;-37
2021/06/19 09:20:32;;;;;;;;;;;;;;;26.29;50.69;100359.09;5056569;28;1086;-43
2021/06/19 09:23:01;;;;;;;;;;;;;;;26.38;50.18;100361.72;5057630;28;710;-42
2021/06/19 09:25:26;;;;;;;;;;;;;;;26.41;48.94;100364.88;5057195;28;728;-36
2021/06/19 09:27:53;;;;;;;;;;;;;;;26.40;50.41;100363.22;5057345;28;1914;-43
2021/06/19 09:30:19;;;;;;;;;;;;;;;26.39;50.32;100360.72;5056881;28;847;-42
2021/06/19 09:32:46;;;;;;;;;;;;;;;26.26;51.45;100364.00;5056496;28;1006;-42
2021/06/19 09:35:11;;;;;;;;;;;;;;;26.31;51.46;100360.78;5056858;28;818;-43
2021/06/19 09:37:39;;;;;;;;;;;;;;;26.35;50.93;100360.25;5057143;28;776;-36
2021/06/19 09:40:20;;;;;;;;;;;;;;;26.38;50.33;100359.03;5056895;28;760;-42
2021/06/19 09:42:46;;;;;;;;;;;;;;;26.30;50.75;100351.84;5057068;28;798;-41
2021/06/19 09:45:22;;;;;;;;;;;;;;;26.34;50.54;100361.25;5056588;28;759;-44
2021/06/19 09:47:47;;;;;;;;;;;;;;;26.21;51.72;100361.88;5056715;28;1953;-41
2021/06/19 09:50:12;;;;;;;;;;;;;;;26.10;51.54;100362.34;5056195;28;800;-41
2021/06/19 09:52:38;;;;;;;;;;;;;;;26.30;50.89;100359.94;5056698;28;771;-41
2021/06/19 09:55:07;;;;;;;;;;;;;;;26.72;50.06;100348.66;5055654;28;1051;-36
2021/06/19 09:57:36;;;;;;;;;;;;;;;26.72;50.56;100352.19;5055366;28;1320;-36
2021/06/19 10:00:01;;;;;;;;;;;;;;;26.83;50.59;100350.84;5056515;28;896;-37
2021/06/19 10:02:27;;;;;;;;;;;;;;;26.59;50.98;100360.13;5056393;28;1003;-41
2021/06/19 10:04:54;;;;;;;;;;;;;;;26.68;50.62;100364.38;5056108;28;823;-36
2021/06/19 10:07:20;;;;;;;;;;;;;;;26.61;51.02;100364.28;5056877;28;1902;-42
2021/06/19 10:09:47;;;;;;;;;;;;;;;26.83;50.96;100369.75;5056612;28;752;-37
2021/06/19 10:12:12;;;;;;;;;;;;;;;27.10;50.53;100378.16;5056174;28;1104;-36
2021/06/19 10:14:37;;;;;;;;;;;;;;;27.02;50.63;100381.81;5056405;28;831;-42
2021/06/19 10:17:03;;;;;;;;;;;;;;;27.16;50.22;100383.81;5055050;28;960;-42
2021/06/19 10:19:28;;;;;;;;;;;;;;;27.17;50.77;100385.47;5056419;28;1305;-44
2021/06/19 10:21:54;;;;;;;;;;;;;;;27.16;50.15;100381.94;5056308;28;907;-42
2021/06/19 10:24:20;;;;;;;;;;;;;;;27.38;49.87;100369.28;5056575;28;767;-42
2021/06/19 10:26:45;;;;;;;;;;;;;;;27.26;50.05;100365.41;5056177;28;1490;-44
2021/06/19 10:29:10;;;;;;;;;;;;;;;27.66;48.18;100369.50;5056121;28;1914;-38
2021/06/19 10:31:55;;;;;;;;;;;;;;;27.99;47.41;100358.94;5056038;28;911;-36
2021/06/19 10:34:21;;;;;;;;;;;;;;;28.23;47.05;100359.50;5056018;28;839;-39
2021/06/19 10:36:54;;;;;;;;;;;;;;;28.29;46.77;100352.47;5056376;28;736;-37
2021/06/19 10:39:40;;;;;;;;;;;;;;;28.45;46.40;100350.47;5056471;28;735;-38
2021/06/19 10:42:06;;;;;;;;;;;;;;;28.45;46.42;100361.28;5055394;28;823;-38
2021/06/19 10:44:50;;;;;;;;;;;;;;;28.43;46.71;100360.63;5055185;28;1118;-38
2021/06/19 10:47:17;;;;;;;;;;;;;;;28.46;46.41;100361.09;5056081;28;1909;-38
2021/06/19 10:49:42;;;;;;;;;;;;;;;28.54;46.19;100356.53;5055823;28;788;-37
2021/06/19 10:52:20;;;;;;;;;;;;;;;28.58;46.21;100357.78;5056116;28;764;-36
2021/06/19 10:55:04;;;;;;;;;;;;;;;28.59;45.99;100362.19;5056372;28;863;-38
2021/06/19 10:57:45;;;;;;;;;;;;;;;28.55;46.08;100369.88;5057771;28;782;-37
2021/06/19 11:00:25;;;;;;;;;;;;;;;28.59;45.97;100359.47;5060418;28;740;-36
2021/06/19 11:02:51;;;;;;;;;;;;;;;28.60;46.34;100361.13;5059068;28;1029;-37
2021/06/19 11:05:34;;;;;;;;;;;;;;;28.58;45.94;100358.63;5059852;28;798;-37
2021/06/19 11:08:00;;;;;;;;;;;;;;;28.61;46.21;100354.72;5059936;28;1926;-37
2021/06/19 11:10:44;;;;;;;;;;;;;;;28.67;45.84;100355.75;5059651;28;740;-35
2021/06/19 11:13:27;;;;;;;;;;;;;;;28.64;46.31;100351.59;5059681;28;1100;-37
2021/06/19 11:15:53;;;;;;;;;;;;;;;28.70;45.93;100350.78;5059879;28;739;-38
2021/06/19 11:18:37;;;;;;;;;;;;;;;28.71;46.16;100349.72;5059138;28;1202;-38
2021/06/19 11:21:11;;;;;;;;;;;;;;;28.66;46.31;100348.69;5059665;28;748;-35
2021/06/19 11:23:55;;;;;;;;;;;;;;;28.67;45.86;100343.06;5059230;28;811;-35
2021/06/19 11:29:36;;;;;;;;;;;;;;;28.65;46.15;100349.69;5036636;28;1965;-39
2021/06/19 11:32:21;;;;;;;;;;;;;;;28.73;45.90;100358.47;5058535;28;1033;-40
2021/06/19 11:34:46;;;;;;;;;;;;;;;27.79;46.73;100353.44;5059164;28;799;-37
2021/06/19 11:37:11;;;;;;;;;;;;;;;27.04;48.76;100354.63;5058184;28;1056;-37
2021/06/19 11:39:37;;;;;;;;;;;;;;;26.68;49.71;100371.63;5059300;28;748;-36
2021/06/19 11:42:02;;;;;;;;;;;;;;;26.47;50.12;100357.91;5058748;28;724;-37
2021/06/19 11:44:34;;;;;;;;;;;;;;;26.35;50.34;100364.78;5059327;28;748;-36
2021/06/19 11:47:00;;;;;;;;;;;;;;;26.01;50.64;100373.22;5058740;28;975;-36
2021/06/19 11:49:29;;;;;;;;;;;;;;;25.90;51.69;100368.28;5058730;28;1972;-36
2021/06/19 11:51:55;;;;;;;;;;;;;;;25.90;51.99;100363.75;5058858;28;771;-38
2021/06/19 11:54:20;;;;;;;;;;;;;;;25.97;51.92;100363.84;5059115;28;732;-36
2021/06/19 11:56:45;;;;;;;;;;;;;;;25.96;51.79;100361.34;5058474;28;744;-36
2021/06/19 11:59:11;;;;;;;;;;;;;;;26.06;51.84;100363.75;5058430;28;828;-38
2021/06/19 12:01:38;;;;;;;;;;;;;;;25.96;52.50;100359.47;5058438;28;978;-37
2021/06/19 12:04:04;;;;;;;;;;;;;;;25.96;52.52;100359.47;5058739;28;748;-36
2021/06/19 12:06:30;;;;;;;;;;;;;;;25.77;53.40;100358.16;5058608;28;820;-35
2021/06/19 12:08:56;;;;;;;;;;;;;;;25.72;53.57;100360.56;5058240;28;1965;-37
2021/06/19 12:11:28;;;;;;;;;;;;;;;26.00;52.99;100363.47;5058506;28;1096;-36
2021/06/19 12:13:53;;;;;;;;;;;;;;;26.08;52.79;100359.00;5058784;28;796;-37
2021/06/19 12:16:18;;;;;;;;;;;;;;;26.15;52.12;100363.47;5058190;28;1011;-35
2021/06/19 12:18:47;;;;;;;;;;;;;;;26.09;51.72;100364.22;5058021;28;1187;-36
2021/06/19 12:21:13;;;;;;;;;;;;;;;26.11;51.59;100358.66;5058388;28;1614;-35
2021/06/19 12:23:39;;;;;;;;;;;;;;;26.12;52.79;100360.31;5058367;28;824;-36
2021/06/19 12:26:14;;;;;;;;;;;;;;;26.11;53.91;100354.09;5058377;28;744;-37
2021/06/19 12:28:46;;;;;;;;;;;;;;;26.17;54.21;100350.63;5058698;28;1981;-36
2021/06/19 12:31:11;;;;;;;;;;;;;;;26.23;52.58;100350.91;5058145;28;974;-36
2021/06/19 12:33:36;;;;;;;;;;;;;;;26.23;52.63;100350.91;5057589;28;982;-37
2021/06/19 12:36:03;;;;;;;;;;;;;;;26.32;52.02;100348.97;5058276;28;784;-36
2021/06/19 12:38:29;;;;;;;;;;;;;;;26.34;51.92;100353.16;5056944;28;844;-37
2021/06/19 12:40:57;;;;;;;;;;;;;;;26.22;52.25;100347.41;5057786;28;772;-37
2021/06/19 12:43:23;;;;;;;;;;;;;;;26.31;51.88;100344.59;5057966;28;740;-37
2021/06/19 12:45:49;;;;;;;;;;;;;;;26.39;51.42;100347.22;5057854;28;736;-35
2021/06/19 12:48:21;;;;;;;;;;;;;;;26.25;51.79;100341.63;5056833;28;1910;-36
2021/06/19 12:50:46;;;;;;;;;;;;;;;26.17;52.11;100341.72;5057698;28;811;-36
2021/06/19 12:53:12;;;;;;;;;;;;;;;26.24;52.12;100353.41;5057509;28;829;-35
2021/06/19 12:55:38;;;;;;;;;;;;;;;26.02;52.68;100349.81;5057392;28;772;-34